sensor_id;sensor_type;location;lat;lon;timestamp;P1;durP1;ratioP1;P2;durP2;ratioP2
20026;SDS011;10174;42.688;23.344;2022-10-16T00:02:17;42.45;;;20.65;;
20026;SDS011;10174;42.688;23.344;2022-10-16T00:04:42;48.80;;;21.40;;
20026;SDS011;10174;42.688;23.344;2022-10-16T00:07:08;47.15;;;21.02;;
20026;SDS011;10174;42.688;23.344;2022-10-16T00:09:33;42.35;;;19.25;;
20026;SDS011;10174;42.688;23.344;2022-10-16T00:11:59;39.10;;;19.25;;
20026;SDS011;10174;42.688;23.344;2022-10-16T00:14:24;43.90;;;19.15;;
20026;SDS011;10174;42.688;23.344;2022-10-16T00:16:49;39.13;;;19.42;;
20026;SDS011;10174;42.688;23.344;2022-10-16T00:19:15;47.65;;;21.15;;
20026;SDS011;10174;42.688;23.344;2022-10-16T00:21:40;42.67;;;20.33;;
20026;SDS011;10174;42.688;23.344;2022-10-16T00:24:07;43.90;;;21.42;;
20026;SDS011;10174;42.688;23.344;2022-10-16T00:26:34;40.28;;;19.70;;
20026;SDS011;10174;42.688;23.344;2022-10-16T00:29:01;42.75;;;20.20;;
20026;SDS011;10174;42.688;23.344;2022-10-16T00:31:27;46.28;;;21.23;;
20026;SDS011;10174;42.688;23.344;2022-10-16T00:33:53;51.90;;;21.13;;
20026;SDS011;10174;42.688;23.344;2022-10-16T00:36:20;42.90;;;20.30;;
20026;SDS011;10174;42.688;23.344;2022-10-16T00:38:49;45.10;;;20.77;;
20026;SDS011;10174;42.688;23.344;2022-10-16T00:41:18;40.90;;;21.25;;
20026;SDS011;10174;42.688;23.344;2022-10-16T00:43:44;49.85;;;22.90;;
20026;SDS011;10174;42.688;23.344;2022-10-16T00:48:51;41.10;;;21.02;;
20026;SDS011;10174;42.688;23.344;2022-10-16T00:51:22;41.88;;;21.02;;
20026;SDS011;10174;42.688;23.344;2022-10-16T00:53:53;45.55;;;21.02;;
20026;SDS011;10174;42.688;23.344;2022-10-16T00:56:19;50.58;;;22.75;;
20026;SDS011;10174;42.688;23.344;2022-10-16T00:58:44;49.13;;;22.52;;
20026;SDS011;10174;42.688;23.344;2022-10-16T01:01:10;40.67;;;20.80;;
20026;SDS011;10174;42.688;23.344;2022-10-16T01:03:36;45.50;;;22.98;;
20026;SDS011;10174;42.688;23.344;2022-10-16T01:06:09;45.40;;;21.58;;
20026;SDS011;10174;42.688;23.344;2022-10-16T01:09:25;42.00;;;22.05;;
20026;SDS011;10174;42.688;23.344;2022-10-16T01:11:40;52.00;;;22.77;;
20026;SDS011;10174;42.688;23.344;2022-10-16T01:14:19;49.50;;;22.55;;
20026;SDS011;10174;42.688;23.344;2022-10-16T01:16:52;49.50;;;22.95;;
20026;SDS011;10174;42.688;23.344;2022-10-16T01:22:21;48.90;;;22.35;;
20026;SDS011;10174;42.688;23.344;2022-10-16T01:24:50;45.45;;;22.55;;
20026;SDS011;10174;42.688;23.344;2022-10-16T01:35:18;47.47;;;22.65;;
20026;SDS011;10174;42.688;23.344;2022-10-16T01:37:48;47.17;;;22.63;;
20026;SDS011;10174;42.688;23.344;2022-10-16T01:40:25;44.47;;;23.00;;
20026;SDS011;10174;42.688;23.344;2022-10-16T01:42:53;48.70;;;23.08;;
20026;SDS011;10174;42.688;23.344;2022-10-16T01:45:25;41.80;;;21.52;;
20026;SDS011;10174;42.688;23.344;2022-10-16T01:47:53;52.28;;;23.08;;
20026;SDS011;10174;42.688;23.344;2022-10-16T01:50:19;49.55;;;21.85;;
20026;SDS011;10174;42.688;23.344;2022-10-16T01:52:47;45.00;;;22.25;;
20026;SDS011;10174;42.688;23.344;2022-10-16T01:55:17;42.22;;;20.90;;
20026;SDS011;10174;42.688;23.344;2022-10-16T01:57:47;56.15;;;23.63;;
20026;SDS011;10174;42.688;23.344;2022-10-16T02:00:15;45.17;;;21.95;;
20026;SDS011;10174;42.688;23.344;2022-10-16T02:02:43;44.33;;;22.42;;
20026;SDS011;10174;42.688;23.344;2022-10-16T02:07:49;50.08;;;24.13;;
20026;SDS011;10174;42.688;23.344;2022-10-16T02:10:15;46.95;;;22.55;;
20026;SDS011;10174;42.688;23.344;2022-10-16T02:12:42;49.42;;;22.42;;
20026;SDS011;10174;42.688;23.344;2022-10-16T02:15:22;49.30;;;22.58;;
20026;SDS011;10174;42.688;23.344;2022-10-16T02:17:48;50.60;;;22.38;;
20026;SDS011;10174;42.688;23.344;2022-10-16T02:20:13;54.10;;;22.80;;
20026;SDS011;10174;42.688;23.344;2022-10-16T02:22:40;49.15;;;23.55;;
20026;SDS011;10174;42.688;23.344;2022-10-16T02:28:16;50.33;;;21.77;;
20026;SDS011;10174;42.688;23.344;2022-10-16T02:30:51;40.60;;;21.98;;
20026;SDS011;10174;42.688;23.344;2022-10-16T02:33:22;41.28;;;20.15;;
20026;SDS011;10174;42.688;23.344;2022-10-16T02:35:50;50.80;;;22.25;;
20026;SDS011;10174;42.688;23.344;2022-10-16T02:38:16;48.08;;;22.45;;
20026;SDS011;10174;42.688;23.344;2022-10-16T02:40:43;40.17;;;20.23;;
20026;SDS011;10174;42.688;23.344;2022-10-16T02:43:09;44.75;;;19.50;;
20026;SDS011;10174;42.688;23.344;2022-10-16T02:45:35;48.50;;;21.08;;
20026;SDS011;10174;42.688;23.344;2022-10-16T02:48:01;39.60;;;19.90;;
20026;SDS011;10174;42.688;23.344;2022-10-16T02:50:27;41.25;;;20.83;;
20026;SDS011;10174;42.688;23.344;2022-10-16T02:52:52;40.60;;;20.25;;
20026;SDS011;10174;42.688;23.344;2022-10-16T02:55:18;41.78;;;20.33;;
20026;SDS011;10174;42.688;23.344;2022-10-16T02:57:43;54.05;;;20.33;;
20026;SDS011;10174;42.688;23.344;2022-10-16T03:00:09;41.28;;;20.60;;
20026;SDS011;10174;42.688;23.344;2022-10-16T03:02:37;41.58;;;19.17;;
20026;SDS011;10174;42.688;23.344;2022-10-16T03:05:03;38.85;;;18.38;;
20026;SDS011;10174;42.688;23.344;2022-10-16T03:07:29;37.63;;;17.67;;
20026;SDS011;10174;42.688;23.344;2022-10-16T03:09:54;39.50;;;18.02;;
20026;SDS011;10174;42.688;23.344;2022-10-16T03:12:20;42.45;;;18.25;;
20026;SDS011;10174;42.688;23.344;2022-10-16T03:14:46;45.90;;;17.88;;
20026;SDS011;10174;42.688;23.344;2022-10-16T03:17:11;34.58;;;17.92;;
20026;SDS011;10174;42.688;23.344;2022-10-16T03:19:38;41.05;;;17.00;;
20026;SDS011;10174;42.688;23.344;2022-10-16T03:22:03;38.33;;;16.95;;
20026;SDS011;10174;42.688;23.344;2022-10-16T03:24:29;38.80;;;17.13;;
20026;SDS011;10174;42.688;23.344;2022-10-16T03:26:54;36.42;;;17.40;;
20026;SDS011;10174;42.688;23.344;2022-10-16T03:29:19;36.45;;;17.27;;
20026;SDS011;10174;42.688;23.344;2022-10-16T03:31:45;43.55;;;17.90;;
20026;SDS011;10174;42.688;23.344;2022-10-16T03:34:10;33.00;;;17.00;;
20026;SDS011;10174;42.688;23.344;2022-10-16T03:36:36;38.63;;;16.90;;
20026;SDS011;10174;42.688;23.344;2022-10-16T03:39:01;32.90;;;15.70;;
20026;SDS011;10174;42.688;23.344;2022-10-16T03:41:27;36.67;;;16.27;;
20026;SDS011;10174;42.688;23.344;2022-10-16T03:43:53;32.85;;;16.35;;
20026;SDS011;10174;42.688;23.344;2022-10-16T03:46:18;35.83;;;16.15;;
20026;SDS011;10174;42.688;23.344;2022-10-16T03:48:43;30.02;;;16.42;;
20026;SDS011;10174;42.688;23.344;2022-10-16T03:51:09;33.53;;;16.15;;
20026;SDS011;10174;42.688;23.344;2022-10-16T03:53:34;37.60;;;14.98;;
20026;SDS011;10174;42.688;23.344;2022-10-16T03:56:00;37.42;;;16.17;;
20026;SDS011;10174;42.688;23.344;2022-10-16T03:58:25;37.13;;;16.00;;
20026;SDS011;10174;42.688;23.344;2022-10-16T04:00:51;35.85;;;15.82;;
20026;SDS011;10174;42.688;23.344;2022-10-16T04:03:16;39.80;;;16.30;;
20026;SDS011;10174;42.688;23.344;2022-10-16T04:05:44;32.72;;;16.15;;
20026;SDS011;10174;42.688;23.344;2022-10-16T04:08:09;45.72;;;16.20;;
20026;SDS011;10174;42.688;23.344;2022-10-16T04:10:34;39.55;;;17.40;;
20026;SDS011;10174;42.688;23.344;2022-10-16T04:13:00;32.15;;;16.75;;
20026;SDS011;10174;42.688;23.344;2022-10-16T04:15:25;35.75;;;15.98;;
20026;SDS011;10174;42.688;23.344;2022-10-16T04:17:51;34.95;;;16.63;;
20026;SDS011;10174;42.688;23.344;2022-10-16T04:20:17;41.30;;;17.25;;
20026;SDS011;10174;42.688;23.344;2022-10-16T04:22:43;37.22;;;17.10;;
20026;SDS011;10174;42.688;23.344;2022-10-16T04:25:08;30.15;;;15.23;;
20026;SDS011;10174;42.688;23.344;2022-10-16T04:27:34;31.20;;;15.68;;
20026;SDS011;10174;42.688;23.344;2022-10-16T04:29:59;42.17;;;17.42;;
20026;SDS011;10174;42.688;23.344;2022-10-16T04:32:25;39.13;;;16.50;;
20026;SDS011;10174;42.688;23.344;2022-10-16T04:34:51;37.22;;;16.75;;
20026;SDS011;10174;42.688;23.344;2022-10-16T04:37:16;36.72;;;16.35;;
20026;SDS011;10174;42.688;23.344;2022-10-16T04:39:42;30.92;;;15.57;;
20026;SDS011;10174;42.688;23.344;2022-10-16T04:42:08;30.08;;;15.88;;
20026;SDS011;10174;42.688;23.344;2022-10-16T04:44:34;35.38;;;16.35;;
20026;SDS011;10174;42.688;23.344;2022-10-16T04:46:59;34.15;;;17.48;;
20026;SDS011;10174;42.688;23.344;2022-10-16T04:49:24;36.42;;;16.45;;
20026;SDS011;10174;42.688;23.344;2022-10-16T04:51:50;42.00;;;16.85;;
20026;SDS011;10174;42.688;23.344;2022-10-16T04:54:15;45.70;;;16.40;;
20026;SDS011;10174;42.688;23.344;2022-10-16T04:56:41;42.88;;;17.20;;
20026;SDS011;10174;42.688;23.344;2022-10-16T04:59:12;37.63;;;17.40;;
20026;SDS011;10174;42.688;23.344;2022-10-16T05:01:39;43.38;;;17.95;;
20026;SDS011;10174;42.688;23.344;2022-10-16T05:04:05;44.78;;;17.23;;
20026;SDS011;10174;42.688;23.344;2022-10-16T05:06:30;35.28;;;16.45;;
20026;SDS011;10174;42.688;23.344;2022-10-16T05:08:55;35.15;;;17.27;;
20026;SDS011;10174;42.688;23.344;2022-10-16T05:11:21;46.67;;;17.25;;
20026;SDS011;10174;42.688;23.344;2022-10-16T05:13:46;41.20;;;16.75;;
20026;SDS011;10174;42.688;23.344;2022-10-16T05:16:11;36.72;;;15.68;;
20026;SDS011;10174;42.688;23.344;2022-10-16T05:18:37;40.13;;;16.48;;
20026;SDS011;10174;42.688;23.344;2022-10-16T05:21:02;38.13;;;17.17;;
20026;SDS011;10174;42.688;23.344;2022-10-16T05:23:28;45.97;;;18.35;;
20026;SDS011;10174;42.688;23.344;2022-10-16T05:25:56;46.08;;;16.13;;
20026;SDS011;10174;42.688;23.344;2022-10-16T05:28:24;41.97;;;16.98;;
20026;SDS011;10174;42.688;23.344;2022-10-16T05:30:50;39.13;;;16.63;;
20026;SDS011;10174;42.688;23.344;2022-10-16T05:33:16;36.08;;;16.67;;
20026;SDS011;10174;42.688;23.344;2022-10-16T05:35:41;45.72;;;17.80;;
20026;SDS011;10174;42.688;23.344;2022-10-16T05:38:07;37.72;;;17.48;;
20026;SDS011;10174;42.688;23.344;2022-10-16T05:40:33;39.55;;;17.73;;
20026;SDS011;10174;42.688;23.344;2022-10-16T05:42:58;32.17;;;16.30;;
20026;SDS011;10174;42.688;23.344;2022-10-16T05:45:23;34.20;;;17.52;;
20026;SDS011;10174;42.688;23.344;2022-10-16T05:47:49;35.63;;;17.60;;
20026;SDS011;10174;42.688;23.344;2022-10-16T05:50:14;37.97;;;17.67;;
20026;SDS011;10174;42.688;23.344;2022-10-16T05:52:39;41.85;;;17.67;;
20026;SDS011;10174;42.688;23.344;2022-10-16T05:55:05;40.65;;;17.85;;
20026;SDS011;10174;42.688;23.344;2022-10-16T05:57:31;35.63;;;17.45;;
20026;SDS011;10174;42.688;23.344;2022-10-16T05:59:56;44.67;;;18.20;;
20026;SDS011;10174;42.688;23.344;2022-10-16T06:02:21;43.17;;;19.70;;
20026;SDS011;10174;42.688;23.344;2022-10-16T06:04:47;37.90;;;20.13;;
20026;SDS011;10174;42.688;23.344;2022-10-16T06:07:12;44.35;;;20.65;;
20026;SDS011;10174;42.688;23.344;2022-10-16T06:09:38;38.03;;;18.27;;
20026;SDS011;10174;42.688;23.344;2022-10-16T06:12:03;40.13;;;19.17;;
20026;SDS011;10174;42.688;23.344;2022-10-16T06:14:29;43.95;;;19.63;;
20026;SDS011;10174;42.688;23.344;2022-10-16T06:16:54;32.38;;;17.55;;
20026;SDS011;10174;42.688;23.344;2022-10-16T06:19:19;34.03;;;17.52;;
20026;SDS011;10174;42.688;23.344;2022-10-16T06:21:45;33.75;;;17.17;;
20026;SDS011;10174;42.688;23.344;2022-10-16T06:24:10;39.60;;;17.70;;
20026;SDS011;10174;42.688;23.344;2022-10-16T06:26:36;36.80;;;18.10;;
20026;SDS011;10174;42.688;23.344;2022-10-16T06:29:02;41.35;;;19.27;;
20026;SDS011;10174;42.688;23.344;2022-10-16T06:31:28;35.10;;;17.92;;
20026;SDS011;10174;42.688;23.344;2022-10-16T06:33:55;33.60;;;16.92;;
20026;SDS011;10174;42.688;23.344;2022-10-16T06:36:22;34.53;;;18.30;;
20026;SDS011;10174;42.688;23.344;2022-10-16T06:38:48;39.65;;;18.75;;
20026;SDS011;10174;42.688;23.344;2022-10-16T06:41:15;45.28;;;19.83;;
20026;SDS011;10174;42.688;23.344;2022-10-16T06:43:42;38.17;;;19.45;;
20026;SDS011;10174;42.688;23.344;2022-10-16T06:46:10;36.78;;;18.73;;
20026;SDS011;10174;42.688;23.344;2022-10-16T06:48:37;35.10;;;18.25;;
20026;SDS011;10174;42.688;23.344;2022-10-16T06:51:04;37.05;;;18.67;;
20026;SDS011;10174;42.688;23.344;2022-10-16T06:53:30;40.15;;;19.90;;
20026;SDS011;10174;42.688;23.344;2022-10-16T06:55:57;36.90;;;19.05;;
20026;SDS011;10174;42.688;23.344;2022-10-16T06:58:22;38.70;;;18.23;;
20026;SDS011;10174;42.688;23.344;2022-10-16T07:00:48;37.08;;;18.48;;
20026;SDS011;10174;42.688;23.344;2022-10-16T07:03:19;39.78;;;19.20;;
20026;SDS011;10174;42.688;23.344;2022-10-16T07:05:45;39.20;;;19.10;;
20026;SDS011;10174;42.688;23.344;2022-10-16T07:08:10;48.40;;;19.67;;
20026;SDS011;10174;42.688;23.344;2022-10-16T07:10:35;37.60;;;19.70;;
20026;SDS011;10174;42.688;23.344;2022-10-16T07:13:01;41.78;;;20.15;;
20026;SDS011;10174;42.688;23.344;2022-10-16T07:15:27;40.15;;;19.38;;
20026;SDS011;10174;42.688;23.344;2022-10-16T07:17:53;40.55;;;18.25;;
20026;SDS011;10174;42.688;23.344;2022-10-16T07:20:19;34.70;;;17.02;;
20026;SDS011;10174;42.688;23.344;2022-10-16T07:22:44;36.35;;;17.45;;
20026;SDS011;10174;42.688;23.344;2022-10-16T07:25:10;30.08;;;16.73;;
20026;SDS011;10174;42.688;23.344;2022-10-16T07:27:36;33.20;;;17.25;;
20026;SDS011;10174;42.688;23.344;2022-10-16T07:30:02;30.17;;;16.67;;
20026;SDS011;10174;42.688;23.344;2022-10-16T07:32:28;26.42;;;15.52;;
20026;SDS011;10174;42.688;23.344;2022-10-16T07:34:53;34.35;;;16.50;;
20026;SDS011;10174;42.688;23.344;2022-10-16T07:37:20;31.60;;;15.20;;
20026;SDS011;10174;42.688;23.344;2022-10-16T07:39:46;31.83;;;15.32;;
20026;SDS011;10174;42.688;23.344;2022-10-16T07:42:11;31.77;;;15.60;;
20026;SDS011;10174;42.688;23.344;2022-10-16T07:44:36;26.95;;;14.32;;
20026;SDS011;10174;42.688;23.344;2022-10-16T07:47:02;30.77;;;14.23;;
20026;SDS011;10174;42.688;23.344;2022-10-16T07:49:27;28.05;;;14.02;;
20026;SDS011;10174;42.688;23.344;2022-10-16T07:51:53;28.73;;;13.93;;
20026;SDS011;10174;42.688;23.344;2022-10-16T07:54:18;32.78;;;14.77;;
20026;SDS011;10174;42.688;23.344;2022-10-16T07:56:44;25.75;;;13.90;;
20026;SDS011;10174;42.688;23.344;2022-10-16T08:01:34;24.08;;;13.65;;
20026;SDS011;10174;42.688;23.344;2022-10-16T08:04:00;22.75;;;12.98;;
20026;SDS011;10174;42.688;23.344;2022-10-16T08:06:25;27.88;;;13.07;;
20026;SDS011;10174;42.688;23.344;2022-10-16T08:08:51;20.88;;;12.98;;
20026;SDS011;10174;42.688;23.344;2022-10-16T08:11:17;24.75;;;13.48;;
20026;SDS011;10174;42.688;23.344;2022-10-16T08:13:42;22.20;;;12.43;;
20026;SDS011;10174;42.688;23.344;2022-10-16T08:16:08;24.15;;;12.65;;
20026;SDS011;10174;42.688;23.344;2022-10-16T08:18:35;23.20;;;12.50;;
20026;SDS011;10174;42.688;23.344;2022-10-16T08:21:01;21.80;;;12.63;;
20026;SDS011;10174;42.688;23.344;2022-10-16T08:23:27;25.08;;;12.52;;
20026;SDS011;10174;42.688;23.344;2022-10-16T08:25:53;22.77;;;13.05;;
20026;SDS011;10174;42.688;23.344;2022-10-16T08:28:20;22.85;;;13.48;;
20026;SDS011;10174;42.688;23.344;2022-10-16T08:30:46;26.40;;;14.23;;
20026;SDS011;10174;42.688;23.344;2022-10-16T08:33:11;27.42;;;12.40;;
20026;SDS011;10174;42.688;23.344;2022-10-16T08:35:36;19.75;;;12.27;;
20026;SDS011;10174;42.688;23.344;2022-10-16T08:38:05;38.00;;;12.45;;
20026;SDS011;10174;42.688;23.344;2022-10-16T08:40:31;23.35;;;11.57;;
20026;SDS011;10174;42.688;23.344;2022-10-16T08:43:08;18.50;;;10.68;;
20026;SDS011;10174;42.688;23.344;2022-10-16T08:53:53;18.83;;;8.82;;
20026;SDS011;10174;42.688;23.344;2022-10-16T08:56:21;20.05;;;8.27;;
20026;SDS011;10174;42.688;23.344;2022-10-16T08:58:48;11.65;;;6.82;;
20026;SDS011;10174;42.688;23.344;2022-10-16T09:01:15;11.30;;;6.80;;
20026;SDS011;10174;42.688;23.344;2022-10-16T09:06:29;12.55;;;6.53;;
20026;SDS011;10174;42.688;23.344;2022-10-16T09:14:34;9.85;;;5.50;;
20026;SDS011;10174;42.688;23.344;2022-10-16T09:19:51;8.95;;;4.88;;
20026;SDS011;10174;42.688;23.344;2022-10-16T09:22:27;19.42;;;5.15;;
20026;SDS011;10174;42.688;23.344;2022-10-16T09:24:55;14.60;;;6.20;;
20026;SDS011;10174;42.688;23.344;2022-10-16T09:27:35;10.48;;;4.65;;
20026;SDS011;10174;42.688;23.344;2022-10-16T09:30:09;6.95;;;3.95;;
20026;SDS011;10174;42.688;23.344;2022-10-16T09:32:39;9.55;;;4.40;;
20026;SDS011;10174;42.688;23.344;2022-10-16T09:35:11;9.05;;;5.00;;
20026;SDS011;10174;42.688;23.344;2022-10-16T09:37:40;6.68;;;4.07;;
20026;SDS011;10174;42.688;23.344;2022-10-16T09:40:12;10.68;;;4.70;;
20026;SDS011;10174;42.688;23.344;2022-10-16T09:42:38;8.27;;;5.47;;
20026;SDS011;10174;42.688;23.344;2022-10-16T09:45:04;8.15;;;4.63;;
20026;SDS011;10174;42.688;23.344;2022-10-16T09:47:30;7.82;;;4.30;;
20026;SDS011;10174;42.688;23.344;2022-10-16T09:50:04;6.82;;;4.22;;
20026;SDS011;10174;42.688;23.344;2022-10-16T09:52:44;6.97;;;4.60;;
20026;SDS011;10174;42.688;23.344;2022-10-16T09:55:13;18.67;;;6.47;;
20026;SDS011;10174;42.688;23.344;2022-10-16T09:57:53;13.15;;;5.18;;
20026;SDS011;10174;42.688;23.344;2022-10-16T10:00:20;13.85;;;4.40;;
20026;SDS011;10174;42.688;23.344;2022-10-16T10:02:46;11.77;;;5.40;;
20026;SDS011;10174;42.688;23.344;2022-10-16T10:05:47;11.85;;;4.53;;
20026;SDS011;10174;42.688;23.344;2022-10-16T10:08:04;9.13;;;3.92;;
20026;SDS011;10174;42.688;23.344;2022-10-16T10:10:32;7.32;;;4.57;;
20026;SDS011;10174;42.688;23.344;2022-10-16T10:13:02;8.73;;;4.38;;
20026;SDS011;10174;42.688;23.344;2022-10-16T10:15:28;8.05;;;5.20;;
20026;SDS011;10174;42.688;23.344;2022-10-16T10:17:59;14.77;;;5.22;;
20026;SDS011;10174;42.688;23.344;2022-10-16T10:20:31;11.13;;;5.47;;
20026;SDS011;10174;42.688;23.344;2022-10-16T10:22:59;6.18;;;3.90;;
20026;SDS011;10174;42.688;23.344;2022-10-16T10:25:37;10.25;;;4.22;;
20026;SDS011;10174;42.688;23.344;2022-10-16T10:33:17;7.95;;;4.18;;
20026;SDS011;10174;42.688;23.344;2022-10-16T10:38:41;11.75;;;4.80;;
20026;SDS011;10174;42.688;23.344;2022-10-16T10:46:40;13.75;;;4.47;;
20026;SDS011;10174;42.688;23.344;2022-10-16T10:57:29;9.45;;;5.00;;
20026;SDS011;10174;42.688;23.344;2022-10-16T11:00:12;8.02;;;4.45;;
20026;SDS011;10174;42.688;23.344;2022-10-16T11:06:12;10.07;;;4.90;;
20026;SDS011;10174;42.688;23.344;2022-10-16T11:08:48;8.93;;;4.63;;
20026;SDS011;10174;42.688;23.344;2022-10-16T11:13:57;14.52;;;4.25;;
20026;SDS011;10174;42.688;23.344;2022-10-16T11:16:39;6.05;;;3.85;;
20026;SDS011;10174;42.688;23.344;2022-10-16T11:24:47;12.52;;;4.25;;
20026;SDS011;10174;42.688;23.344;2022-10-16T11:27:19;11.55;;;3.85;;
20026;SDS011;10174;42.688;23.344;2022-10-16T11:29:55;8.65;;;4.35;;
20026;SDS011;10174;42.688;23.344;2022-10-16T11:32:25;7.18;;;4.00;;
20026;SDS011;10174;42.688;23.344;2022-10-16T11:35:02;6.15;;;3.53;;
20026;SDS011;10174;42.688;23.344;2022-10-16T11:37:37;10.75;;;4.38;;
20026;SDS011;10174;42.688;23.344;2022-10-16T11:40:17;6.28;;;3.63;;
20026;SDS011;10174;42.688;23.344;2022-10-16T11:42:50;8.80;;;3.50;;
20026;SDS011;10174;42.688;23.344;2022-10-16T11:50:58;9.82;;;3.70;;
20026;SDS011;10174;42.688;23.344;2022-10-16T11:53:42;9.68;;;3.30;;
20026;SDS011;10174;42.688;23.344;2022-10-16T11:56:15;10.40;;;4.13;;
20026;SDS011;10174;42.688;23.344;2022-10-16T12:01:17;6.60;;;3.70;;
20026;SDS011;10174;42.688;23.344;2022-10-16T12:03:56;6.35;;;3.88;;
20026;SDS011;10174;42.688;23.344;2022-10-16T12:06:44;9.50;;;4.47;;
20026;SDS011;10174;42.688;23.344;2022-10-16T12:09:32;8.60;;;3.70;;
20026;SDS011;10174;42.688;23.344;2022-10-16T12:12:01;6.57;;;3.63;;
20026;SDS011;10174;42.688;23.344;2022-10-16T12:16:59;6.00;;;3.80;;
20026;SDS011;10174;42.688;23.344;2022-10-16T12:19:30;7.40;;;3.70;;
20026;SDS011;10174;42.688;23.344;2022-10-16T12:21:57;5.90;;;3.35;;
20026;SDS011;10174;42.688;23.344;2022-10-16T12:24:35;8.75;;;4.13;;
20026;SDS011;10174;42.688;23.344;2022-10-16T12:27:03;9.15;;;3.38;;
20026;SDS011;10174;42.688;23.344;2022-10-16T12:29:36;8.65;;;3.80;;
20026;SDS011;10174;42.688;23.344;2022-10-16T12:32:03;8.25;;;3.42;;
20026;SDS011;10174;42.688;23.344;2022-10-16T12:37:14;10.10;;;4.22;;
20026;SDS011;10174;42.688;23.344;2022-10-16T12:39:48;12.73;;;4.68;;
20026;SDS011;10174;42.688;23.344;2022-10-16T12:44:52;13.90;;;5.03;;
20026;SDS011;10174;42.688;23.344;2022-10-16T12:47:23;7.35;;;4.28;;
20026;SDS011;10174;42.688;23.344;2022-10-16T12:50:01;9.65;;;4.78;;
20026;SDS011;10174;42.688;23.344;2022-10-16T12:55:03;14.27;;;4.50;;
20026;SDS011;10174;42.688;23.344;2022-10-16T13:06:04;9.80;;;3.97;;
20026;SDS011;10174;42.688;23.344;2022-10-16T13:08:57;11.85;;;4.43;;
20026;SDS011;10174;42.688;23.344;2022-10-16T13:28:34;19.00;;;7.13;;
20026;SDS011;10174;42.688;23.344;2022-10-16T13:31:03;8.13;;;3.90;;
20026;SDS011;10174;42.688;23.344;2022-10-16T13:36:03;7.35;;;4.07;;
20026;SDS011;10174;42.688;23.344;2022-10-16T13:38:30;16.13;;;3.85;;
20026;SDS011;10174;42.688;23.344;2022-10-16T13:46:01;9.75;;;4.60;;
20026;SDS011;10174;42.688;23.344;2022-10-16T13:48:29;8.07;;;3.63;;
20026;SDS011;10174;42.688;23.344;2022-10-16T13:50:59;6.40;;;2.97;;
20026;SDS011;10174;42.688;23.344;2022-10-16T13:53:32;9.15;;;2.97;;
20026;SDS011;10174;42.688;23.344;2022-10-16T13:56:00;7.50;;;3.47;;
20026;SDS011;10174;42.688;23.344;2022-10-16T13:58:28;5.50;;;3.33;;
20026;SDS011;10174;42.688;23.344;2022-10-16T14:00:54;11.13;;;3.92;;
20026;SDS011;10174;42.688;23.344;2022-10-16T14:03:22;6.78;;;3.65;;
20026;SDS011;10174;42.688;23.344;2022-10-16T14:05:52;10.20;;;4.20;;
20026;SDS011;10174;42.688;23.344;2022-10-16T14:08:20;6.30;;;3.10;;
20026;SDS011;10174;42.688;23.344;2022-10-16T14:10:50;16.10;;;4.30;;
20026;SDS011;10174;42.688;23.344;2022-10-16T14:13:19;9.82;;;3.75;;
20026;SDS011;10174;42.688;23.344;2022-10-16T14:15:52;5.72;;;3.45;;
20026;SDS011;10174;42.688;23.344;2022-10-16T14:18:23;11.18;;;3.95;;
20026;SDS011;10174;42.688;23.344;2022-10-16T14:20:51;8.15;;;3.17;;
20026;SDS011;10174;42.688;23.344;2022-10-16T14:23:21;6.10;;;3.72;;
20026;SDS011;10174;42.688;23.344;2022-10-16T14:25:51;6.65;;;3.72;;
20026;SDS011;10174;42.688;23.344;2022-10-16T14:33:31;10.52;;;3.63;;
20026;SDS011;10174;42.688;23.344;2022-10-16T14:36:00;5.75;;;3.15;;
20026;SDS011;10174;42.688;23.344;2022-10-16T14:38:28;8.18;;;3.70;;
20026;SDS011;10174;42.688;23.344;2022-10-16T14:40:54;10.52;;;3.47;;
20026;SDS011;10174;42.688;23.344;2022-10-16T14:43:29;10.45;;;5.60;;
20026;SDS011;10174;42.688;23.344;2022-10-16T14:46:06;10.60;;;3.42;;
20026;SDS011;10174;42.688;23.344;2022-10-16T14:48:48;5.32;;;3.45;;
20026;SDS011;10174;42.688;23.344;2022-10-16T14:51:16;9.20;;;3.72;;
20026;SDS011;10174;42.688;23.344;2022-10-16T14:53:42;10.73;;;4.15;;
20026;SDS011;10174;42.688;23.344;2022-10-16T14:56:09;13.63;;;4.18;;
20026;SDS011;10174;42.688;23.344;2022-10-16T14:58:42;6.72;;;3.75;;
20026;SDS011;10174;42.688;23.344;2022-10-16T15:01:09;10.35;;;3.47;;
20026;SDS011;10174;42.688;23.344;2022-10-16T15:03:36;8.55;;;3.30;;
20026;SDS011;10174;42.688;23.344;2022-10-16T15:06:02;8.50;;;3.85;;
20026;SDS011;10174;42.688;23.344;2022-10-16T15:08:27;33.10;;;15.48;;
20026;SDS011;10174;42.688;23.344;2022-10-16T15:10:53;10.82;;;4.40;;
20026;SDS011;10174;42.688;23.344;2022-10-16T15:13:18;14.82;;;4.45;;
20026;SDS011;10174;42.688;23.344;2022-10-16T15:15:44;11.63;;;3.97;;
20026;SDS011;10174;42.688;23.344;2022-10-16T15:18:11;8.60;;;3.92;;
20026;SDS011;10174;42.688;23.344;2022-10-16T15:20:39;9.25;;;4.38;;
20026;SDS011;10174;42.688;23.344;2022-10-16T15:23:15;12.45;;;4.28;;
20026;SDS011;10174;42.688;23.344;2022-10-16T15:25:46;10.77;;;4.25;;
20026;SDS011;10174;42.688;23.344;2022-10-16T15:28:20;6.88;;;4.18;;
20026;SDS011;10174;42.688;23.344;2022-10-16T15:30:46;7.90;;;4.28;;
20026;SDS011;10174;42.688;23.344;2022-10-16T15:33:16;11.27;;;4.63;;
20026;SDS011;10174;42.688;23.344;2022-10-16T15:35:58;12.38;;;4.95;;
20026;SDS011;10174;42.688;23.344;2022-10-16T15:38:24;13.18;;;3.92;;
20026;SDS011;10174;42.688;23.344;2022-10-16T15:40:51;11.00;;;4.60;;
20026;SDS011;10174;42.688;23.344;2022-10-16T15:43:16;10.00;;;3.97;;
20026;SDS011;10174;42.688;23.344;2022-10-16T15:45:42;10.73;;;4.68;;
20026;SDS011;10174;42.688;23.344;2022-10-16T15:48:11;10.73;;;4.50;;
20026;SDS011;10174;42.688;23.344;2022-10-16T15:50:38;29.98;;;5.53;;
20026;SDS011;10174;42.688;23.344;2022-10-16T15:53:04;21.75;;;5.50;;
20026;SDS011;10174;42.688;23.344;2022-10-16T15:55:29;11.80;;;5.15;;
20026;SDS011;10174;42.688;23.344;2022-10-16T15:57:55;12.30;;;5.40;;
20026;SDS011;10174;42.688;23.344;2022-10-16T16:00:20;19.10;;;5.28;;
20026;SDS011;10174;42.688;23.344;2022-10-16T16:02:50;14.63;;;5.70;;
20026;SDS011;10174;42.688;23.344;2022-10-16T16:05:17;13.38;;;5.70;;
20026;SDS011;10174;42.688;23.344;2022-10-16T16:07:43;13.15;;;5.60;;
20026;SDS011;10174;42.688;23.344;2022-10-16T16:10:09;14.55;;;5.72;;
20026;SDS011;10174;42.688;23.344;2022-10-16T16:12:36;19.08;;;6.38;;
20026;SDS011;10174;42.688;23.344;2022-10-16T16:15:03;16.35;;;6.32;;
20026;SDS011;10174;42.688;23.344;2022-10-16T16:17:33;19.10;;;5.95;;
20026;SDS011;10174;42.688;23.344;2022-10-16T16:19:59;13.07;;;5.75;;
20026;SDS011;10174;42.688;23.344;2022-10-16T16:22:25;14.15;;;6.18;;
20026;SDS011;10174;42.688;23.344;2022-10-16T16:24:50;17.42;;;5.72;;
20026;SDS011;10174;42.688;23.344;2022-10-16T16:27:16;17.70;;;5.95;;
20026;SDS011;10174;42.688;23.344;2022-10-16T16:29:41;20.88;;;6.35;;
20026;SDS011;10174;42.688;23.344;2022-10-16T16:34:33;14.90;;;5.95;;
20026;SDS011;10174;42.688;23.344;2022-10-16T16:39:23;12.63;;;6.47;;